sensor_id;sensor_type;location;lat;lon;timestamp;pressure;altitude;pressure_sealevel;temperature
12875;BMP180;6505;51.114;13.128;2023-04-01T00:00:55;97724.00;;;16.80
12875;BMP180;6505;51.114;13.128;2023-04-01T00:03:26;97732.00;;;16.80
12875;BMP180;6505;51.114;13.128;2023-04-01T00:05:57;97739.00;;;16.80
12875;BMP180;6505;51.114;13.128;2023-04-01T00:08:27;97736.00;;;16.80
12875;BMP180;6505;51.114;13.128;2023-04-01T00:10:55;97741.00;;;16.80
12875;BMP180;6505;51.114;13.128;2023-04-01T00:13:25;97734.00;;;16.80
12875;BMP180;6505;51.114;13.128;2023-04-01T00:15:54;97729.00;;;16.80
12875;BMP180;6505;51.114;13.128;2023-04-01T00:18:25;97734.00;;;16.80
12875;BMP180;6505;51.114;13.128;2023-04-01T00:20:54;97733.00;;;16.80
12875;BMP180;6505;51.114;13.128;2023-04-01T00:23:22;97740.00;;;16.80
12875;BMP180;6505;51.114;13.128;2023-04-01T00:25:50;97739.00;;;16.80
12875;BMP180;6505;51.114;13.128;2023-04-01T00:28:19;97732.00;;;16.80
12875;BMP180;6505;51.114;13.128;2023-04-01T00:30:48;97728.00;;;16.80
12875;BMP180;6505;51.114;13.128;2023-04-01T00:33:16;97733.00;;;16.80
12875;BMP180;6505;51.114;13.128;2023-04-01T00:35:46;97728.00;;;16.80
12875;BMP180;6505;51.114;13.128;2023-04-01T00:38:14;97730.00;;;16.80
12875;BMP180;6505;51.114;13.128;2023-04-01T00:40:45;97729.00;;;16.80
12875;BMP180;6505;51.114;13.128;2023-04-01T00:43:17;97731.00;;;16.80
12875;BMP180;6505;51.114;13.128;2023-04-01T00:45:48;97733.00;;;16.80
12875;BMP180;6505;51.114;13.128;2023-04-01T00:48:20;97731.00;;;16.80
12875;BMP180;6505;51.114;13.128;2023-04-01T00:50:55;97726.00;;;16.80
12875;BMP180;6505;51.114;13.128;2023-04-01T00:53:26;97726.00;;;16.80
12875;BMP180;6505;51.114;13.128;2023-04-01T00:56:01;97720.00;;;16.80
12875;BMP180;6505;51.114;13.128;2023-04-01T00:58:38;97720.00;;;16.80
12875;BMP180;6505;51.114;13.128;2023-04-01T01:01:08;97733.00;;;16.80
12875;BMP180;6505;51.114;13.128;2023-04-01T01:03:37;97731.00;;;16.80
12875;BMP180;6505;51.114;13.128;2023-04-01T01:06:22;97722.00;;;16.70
12875;BMP180;6505;51.114;13.128;2023-04-01T01:09:15;97719.00;;;16.70
12875;BMP180;6505;51.114;13.128;2023-04-01T01:11:51;97730.00;;;16.70
12875;BMP180;6505;51.114;13.128;2023-04-01T01:14:34;97726.00;;;16.70
12875;BMP180;6505;51.114;13.128;2023-04-01T01:17:16;97727.00;;;16.70
12875;BMP180;6505;51.114;13.128;2023-04-01T01:20:10;97731.00;;;16.70
12875;BMP180;6505;51.114;13.128;2023-04-01T01:23:19;97732.00;;;16.70
12875;BMP180;6505;51.114;13.128;2023-04-01T01:26:16;97719.00;;;16.70
12875;BMP180;6505;51.114;13.128;2023-04-01T01:29:03;97726.00;;;16.70
12875;BMP180;6505;51.114;13.128;2023-04-01T01:31:37;97723.00;;;16.70
12875;BMP180;6505;51.114;13.128;2023-04-01T01:34:20;97725.00;;;16.70
12875;BMP180;6505;51.114;13.128;2023-04-01T01:36:56;97712.00;;;16.70
12875;BMP180;6505;51.114;13.128;2023-04-01T01:39:30;97708.00;;;16.70
12875;BMP180;6505;51.114;13.128;2023-04-01T01:42:03;97714.00;;;16.70
12875;BMP180;6505;51.114;13.128;2023-04-01T01:44:34;97720.00;;;16.70
12875;BMP180;6505;51.114;13.128;2023-04-01T01:47:03;97719.00;;;16.70
12875;BMP180;6505;51.114;13.128;2023-04-01T01:49:34;97724.00;;;16.70
12875;BMP180;6505;51.114;13.128;2023-04-01T01:52:05;97724.00;;;16.70
12875;BMP180;6505;51.114;13.128;2023-04-01T01:54:33;97719.00;;;16.70
12875;BMP180;6505;51.114;13.128;2023-04-01T01:57:06;97737.00;;;16.70
12875;BMP180;6505;51.114;13.128;2023-04-01T01:59:39;97730.00;;;16.70
12875;BMP180;6505;51.114;13.128;2023-04-01T02:02:10;97710.00;;;16.70
12875;BMP180;6505;51.114;13.128;2023-04-01T02:04:42;97727.00;;;16.70
12875;BMP180;6505;51.114;13.128;2023-04-01T02:07:18;97728.00;;;16.70
12875;BMP180;6505;51.114;13.128;2023-04-01T02:09:49;97725.00;;;16.70
12875;BMP180;6505;51.114;13.128;2023-04-01T02:12:20;97722.00;;;16.70
12875;BMP180;6505;51.114;13.128;2023-04-01T02:14:54;97723.00;;;16.70
12875;BMP180;6505;51.114;13.128;2023-04-01T02:17:26;97717.00;;;16.70
12875;BMP180;6505;51.114;13.128;2023-04-01T02:20:00;97713.00;;;16.70
12875;BMP180;6505;51.114;13.128;2023-04-01T02:22:37;97726.00;;;16.70
12875;BMP180;6505;51.114;13.128;2023-04-01T02:25:13;97721.00;;;16.70
12875;BMP180;6505;51.114;13.128;2023-04-01T02:27:44;97722.00;;;16.70
12875;BMP180;6505;51.114;13.128;2023-04-01T02:30:16;97726.00;;;16.70
12875;BMP180;6505;51.114;13.128;2023-04-01T02:32:46;97720.00;;;16.70
12875;BMP180;6505;51.114;13.128;2023-04-01T02:35:16;97725.00;;;16.70
12875;BMP180;6505;51.114;13.128;2023-04-01T02:37:49;97720.00;;;16.70
12875;BMP180;6505;51.114;13.128;2023-04-01T02:40:18;97726.00;;;16.70
12875;BMP180;6505;51.114;13.128;2023-04-01T02:42:46;97731.00;;;16.70
12875;BMP180;6505;51.114;13.128;2023-04-01T02:45:14;97734.00;;;16.70
12875;BMP180;6505;51.114;13.128;2023-04-01T02:47:42;97731.00;;;16.70
12875;BMP180;6505;51.114;13.128;2023-04-01T02:50:11;97728.00;;;16.70
12875;BMP180;6505;51.114;13.128;2023-04-01T02:52:39;97737.00;;;16.70
12875;BMP180;6505;51.114;13.128;2023-04-01T02:55:09;97733.00;;;16.70
12875;BMP180;6505;51.114;13.128;2023-04-01T02:57:37;97735.00;;;16.70
12875;BMP180;6505;51.114;13.128;2023-04-01T03:00:07;97744.00;;;16.70
12875;BMP180;6505;51.114;13.128;2023-04-01T03:02:38;97743.00;;;16.70
12875;BMP180;6505;51.114;13.128;2023-04-01T03:05:07;97747.00;;;16.70
12875;BMP180;6505;51.114;13.128;2023-04-01T03:07:35;97745.00;;;16.70
12875;BMP180;6505;51.114;13.128;2023-04-01T03:10:04;97742.00;;;16.70
12875;BMP180;6505;51.114;13.128;2023-04-01T03:12:34;97743.00;;;16.70
12875;BMP180;6505;51.114;13.128;2023-04-01T03:15:02;97726.00;;;16.70
12875;BMP180;6505;51.114;13.128;2023-04-01T03:17:38;97743.00;;;16.70
12875;BMP180;6505;51.114;13.128;2023-04-01T03:20:09;97737.00;;;16.60
12875;BMP180;6505;51.114;13.128;2023-04-01T03:22:37;97742.00;;;16.70
12875;BMP180;6505;51.114;13.128;2023-04-01T03:25:10;97736.00;;;16.70
12875;BMP180;6505;51.114;13.128;2023-04-01T03:27:39;97742.00;;;16.60
12875;BMP180;6505;51.114;13.128;2023-04-01T03:30:09;97743.00;;;16.60
12875;BMP180;6505;51.114;13.128;2023-04-01T03:32:45;97751.00;;;16.70
12875;BMP180;6505;51.114;13.128;2023-04-01T03:35:14;97742.00;;;16.70
12875;BMP180;6505;51.114;13.128;2023-04-01T03:37:42;97745.00;;;16.70
12875;BMP180;6505;51.114;13.128;2023-04-01T03:40:11;97755.00;;;16.70
12875;BMP180;6505;51.114;13.128;2023-04-01T03:42:40;97758.00;;;16.60
12875;BMP180;6505;51.114;13.128;2023-04-01T03:45:10;97759.00;;;16.60
12875;BMP180;6505;51.114;13.128;2023-04-01T03:47:39;97759.00;;;16.60
12875;BMP180;6505;51.114;13.128;2023-04-01T03:50:08;97748.00;;;16.60
12875;BMP180;6505;51.114;13.128;2023-04-01T03:52:36;97762.00;;;16.60
12875;BMP180;6505;51.114;13.128;2023-04-01T03:55:05;97761.00;;;16.60
12875;BMP180;6505;51.114;13.128;2023-04-01T03:57:34;97766.00;;;16.60
12875;BMP180;6505;51.114;13.128;2023-04-01T04:00:14;97768.00;;;16.60
12875;BMP180;6505;51.114;13.128;2023-04-01T04:02:45;97770.00;;;16.60
12875;BMP180;6505;51.114;13.128;2023-04-01T04:05:18;97765.00;;;16.60
12875;BMP180;6505;51.114;13.128;2023-04-01T04:07:46;97773.00;;;16.60
12875;BMP180;6505;51.114;13.128;2023-04-01T04:10:14;97774.00;;;16.60
12875;BMP180;6505;51.114;13.128;2023-04-01T04:12:42;97778.00;;;16.60
12875;BMP180;6505;51.114;13.128;2023-04-01T04:15:11;97773.00;;;16.60
12875;BMP180;6505;51.114;13.128;2023-04-01T04:17:41;97781.00;;;16.60
12875;BMP180;6505;51.114;13.128;2023-04-01T04:20:09;97778.00;;;16.60
12875;BMP180;6505;51.114;13.128;2023-04-01T04:22:37;97784.00;;;16.60
12875;BMP180;6505;51.114;13.128;2023-04-01T04:25:08;97787.00;;;16.60
12875;BMP180;6505;51.114;13.128;2023-04-01T04:27:37;97791.00;;;16.60
12875;BMP180;6505;51.114;13.128;2023-04-01T04:30:09;97793.00;;;16.60
12875;BMP180;6505;51.114;13.128;2023-04-01T04:32:37;97791.00;;;16.60
12875;BMP180;6505;51.114;13.128;2023-04-01T04:35:07;97797.00;;;16.60
12875;BMP180;6505;51.114;13.128;2023-04-01T04:37:36;97794.00;;;16.60
12875;BMP180;6505;51.114;13.128;2023-04-01T04:40:07;97799.00;;;16.60
12875;BMP180;6505;51.114;13.128;2023-04-01T04:42:35;97802.00;;;16.60
12875;BMP180;6505;51.114;13.128;2023-04-01T04:45:10;97787.00;;;16.60
12875;BMP180;6505;51.114;13.128;2023-04-01T04:47:45;97796.00;;;16.60
12875;BMP180;6505;51.114;13.128;2023-04-01T04:50:14;97797.00;;;16.50
12875;BMP180;6505;51.114;13.128;2023-04-01T04:52:43;97798.00;;;16.60
12875;BMP180;6505;51.114;13.128;2023-04-01T04:55:11;97798.00;;;16.60
12875;BMP180;6505;51.114;13.128;2023-04-01T04:57:42;97797.00;;;16.60
12875;BMP180;6505;51.114;13.128;2023-04-01T05:00:11;97804.00;;;16.60
12875;BMP180;6505;51.114;13.128;2023-04-01T05:02:47;97805.00;;;16.60
12875;BMP180;6505;51.114;13.128;2023-04-01T05:05:18;97812.00;;;16.50
12875;BMP180;6505;51.114;13.128;2023-04-01T05:07:46;97817.00;;;16.60
12875;BMP180;6505;51.114;13.128;2023-04-01T05:10:14;97807.00;;;16.60
12875;BMP180;6505;51.114;13.128;2023-04-01T05:12:42;97802.00;;;16.60
12875;BMP180;6505;51.114;13.128;2023-04-01T05:15:15;97810.00;;;16.50
12875;BMP180;6505;51.114;13.128;2023-04-01T05:17:43;97813.00;;;16.50
12875;BMP180;6505;51.114;13.128;2023-04-01T05:20:13;97816.00;;;16.50
12875;BMP180;6505;51.114;13.128;2023-04-01T05:22:43;97813.00;;;16.50
12875;BMP180;6505;51.114;13.128;2023-04-01T05:25:11;97811.00;;;16.50
12875;BMP180;6505;51.114;13.128;2023-04-01T05:27:39;97815.00;;;16.60
12875;BMP180;6505;51.114;13.128;2023-04-01T05:30:08;97826.00;;;16.50
12875;BMP180;6505;51.114;13.128;2023-04-01T05:33:03;97818.00;;;16.50
12875;BMP180;6505;51.114;13.128;2023-04-01T05:35:31;97816.00;;;16.50
12875;BMP180;6505;51.114;13.128;2023-04-01T05:38:01;97822.00;;;16.50
12875;BMP180;6505;51.114;13.128;2023-04-01T05:40:31;97825.00;;;16.50
12875;BMP180;6505;51.114;13.128;2023-04-01T05:42:59;97823.00;;;16.50
12875;BMP180;6505;51.114;13.128;2023-04-01T05:45:27;97822.00;;;16.50
12875;BMP180;6505;51.114;13.128;2023-04-01T05:48:11;97824.00;;;16.50
12875;BMP180;6505;51.114;13.128;2023-04-01T05:50:40;97821.00;;;16.50
12875;BMP180;6505;51.114;13.128;2023-04-01T05:53:11;97822.00;;;16.50
12875;BMP180;6505;51.114;13.128;2023-04-01T05:55:42;97821.00;;;16.50
12875;BMP180;6505;51.114;13.128;2023-04-01T05:58:10;97832.00;;;16.60
12875;BMP180;6505;51.114;13.128;2023-04-01T06:00:40;97836.00;;;16.60
12875;BMP180;6505;51.114;13.128;2023-04-01T06:03:08;97828.00;;;16.60
12875;BMP180;6505;51.114;13.128;2023-04-01T06:05:46;97831.00;;;16.50
12875;BMP180;6505;51.114;13.128;2023-04-01T06:08:18;97834.00;;;16.50
12875;BMP180;6505;51.114;13.128;2023-04-01T06:11:00;97825.00;;;16.50
12875;BMP180;6505;51.114;13.128;2023-04-01T06:13:50;97833.00;;;16.50
12875;BMP180;6505;51.114;13.128;2023-04-01T06:16:33;97834.00;;;16.50
12875;BMP180;6505;51.114;13.128;2023-04-01T06:19:24;97832.00;;;16.50
12875;BMP180;6505;51.114;13.128;2023-04-01T06:22:20;97839.00;;;16.50
12875;BMP180;6505;51.114;13.128;2023-04-01T06:25:22;97843.00;;;16.50
12875;BMP180;6505;51.114;13.128;2023-04-01T06:28:14;97838.00;;;16.40
12875;BMP180;6505;51.114;13.128;2023-04-01T06:30:53;97841.00;;;16.50
12875;BMP180;6505;51.114;13.128;2023-04-01T06:33:49;97844.00;;;16.50
12875;BMP180;6505;51.114;13.128;2023-04-01T06:36:49;97844.00;;;16.50
12875;BMP180;6505;51.114;13.128;2023-04-01T06:39:46;97845.00;;;16.50
12875;BMP180;6505;51.114;13.128;2023-04-01T06:45:58;97847.00;;;16.50
12875;BMP180;6505;51.114;13.128;2023-04-01T06:49:07;97851.00;;;16.50
12875;BMP180;6505;51.114;13.128;2023-04-01T06:52:08;97850.00;;;16.50
12875;BMP180;6505;51.114;13.128;2023-04-01T06:55:12;97849.00;;;16.40
12875;BMP180;6505;51.114;13.128;2023-04-01T06:58:20;97861.00;;;16.40
12875;BMP180;6505;51.114;13.128;2023-04-01T07:00:54;97844.00;;;16.50
12875;BMP180;6505;51.114;13.128;2023-04-01T07:03:30;97849.00;;;16.50
12875;BMP180;6505;51.114;13.128;2023-04-01T07:06:06;97852.00;;;16.50
12875;BMP180;6505;51.114;13.128;2023-04-01T07:08:48;97860.00;;;16.50
12875;BMP180;6505;51.114;13.128;2023-04-01T07:11:28;97853.00;;;16.40
12875;BMP180;6505;51.114;13.128;2023-04-01T07:14:22;97859.00;;;16.50
12875;BMP180;6505;51.114;13.128;2023-04-01T07:16:58;97862.00;;;16.50
12875;BMP180;6505;51.114;13.128;2023-04-01T07:19:35;97872.00;;;16.50
12875;BMP180;6505;51.114;13.128;2023-04-01T07:22:21;97868.00;;;16.50
12875;BMP180;6505;51.114;13.128;2023-04-01T07:25:07;97869.00;;;16.50
12875;BMP180;6505;51.114;13.128;2023-04-01T07:27:38;97873.00;;;16.60
12875;BMP180;6505;51.114;13.128;2023-04-01T07:30:15;97868.00;;;16.50
12875;BMP180;6505;51.114;13.128;2023-04-01T07:32:47;97876.00;;;16.60
12875;BMP180;6505;51.114;13.128;2023-04-01T07:35:27;97883.00;;;16.60
12875;BMP180;6505;51.114;13.128;2023-04-01T07:38:09;97886.00;;;16.60
12875;BMP180;6505;51.114;13.128;2023-04-01T07:40:48;97886.00;;;16.60
12875;BMP180;6505;51.114;13.128;2023-04-01T07:43:56;97889.00;;;16.60
12875;BMP180;6505;51.114;13.128;2023-04-01T07:46:53;97891.00;;;16.60
12875;BMP180;6505;51.114;13.128;2023-04-01T07:49:32;97892.00;;;16.60
12875;BMP180;6505;51.114;13.128;2023-04-01T07:52:07;97901.00;;;16.60
12875;BMP180;6505;51.114;13.128;2023-04-01T07:54:50;97897.00;;;16.60
12875;BMP180;6505;51.114;13.128;2023-04-01T07:57:27;97898.00;;;16.60
12875;BMP180;6505;51.114;13.128;2023-04-01T08:00:10;97903.00;;;16.60
12875;BMP180;6505;51.114;13.128;2023-04-01T08:03:20;97903.00;;;16.60
12875;BMP180;6505;51.114;13.128;2023-04-01T08:05:55;97906.00;;;16.70
12875;BMP180;6505;51.114;13.128;2023-04-01T08:08:39;97903.00;;;16.70
12875;BMP180;6505;51.114;13.128;2023-04-01T08:11:53;97911.00;;;16.70
12875;BMP180;6505;51.114;13.128;2023-04-01T08:14:58;97907.00;;;16.70
12875;BMP180;6505;51.114;13.128;2023-04-01T08:18:04;97898.00;;;16.60
12875;BMP180;6505;51.114;13.128;2023-04-01T08:20:41;97908.00;;;16.70
12875;BMP180;6505;51.114;13.128;2023-04-01T08:23:15;97909.00;;;16.70
12875;BMP180;6505;51.114;13.128;2023-04-01T08:25:51;97915.00;;;16.70
12875;BMP180;6505;51.114;13.128;2023-04-01T08:28:29;97914.00;;;16.70
12875;BMP180;6505;51.114;13.128;2023-04-01T08:31:09;97908.00;;;16.80
12875;BMP180;6505;51.114;13.128;2023-04-01T08:33:46;97917.00;;;16.80
12875;BMP180;6505;51.114;13.128;2023-04-01T08:36:19;97926.00;;;16.80
12875;BMP180;6505;51.114;13.128;2023-04-01T08:39:05;97917.00;;;16.80
12875;BMP180;6505;51.114;13.128;2023-04-01T08:45:39;97925.00;;;16.80
12875;BMP180;6505;51.114;13.128;2023-04-01T08:48:28;97929.00;;;16.80
12875;BMP180;6505;51.114;13.128;2023-04-01T08:55:01;97923.00;;;16.80
12875;BMP180;6505;51.114;13.128;2023-04-01T08:58:24;97926.00;;;16.80
12875;BMP180;6505;51.114;13.128;2023-04-01T09:05:05;97916.00;;;16.80
12875;BMP180;6505;51.114;13.128;2023-04-01T09:07:45;97920.00;;;16.80
12875;BMP180;6505;51.114;13.128;2023-04-01T09:10:34;97923.00;;;16.90
12875;BMP180;6505;51.114;13.128;2023-04-01T09:17:13;97920.00;;;16.80
12875;BMP180;6505;51.114;13.128;2023-04-01T09:20:02;97935.00;;;16.90
12875;BMP180;6505;51.114;13.128;2023-04-01T09:22:57;97930.00;;;16.90
12875;BMP180;6505;51.114;13.128;2023-04-01T09:25:50;97927.00;;;16.90
12875;BMP180;6505;51.114;13.128;2023-04-01T09:28:28;97920.00;;;16.90
12875;BMP180;6505;51.114;13.128;2023-04-01T09:31:22;97919.00;;;16.90
12875;BMP180;6505;51.114;13.128;2023-04-01T09:34:38;97914.00;;;16.90
12875;BMP180;6505;51.114;13.128;2023-04-01T09:37:20;97923.00;;;17.00
12875;BMP180;6505;51.114;13.128;2023-04-01T09:40:13;97920.00;;;17.00
12875;BMP180;6505;51.114;13.128;2023-04-01T09:43:06;97922.00;;;17.00
12875;BMP180;6505;51.114;13.128;2023-04-01T09:45:51;97911.00;;;17.00
12875;BMP180;6505;51.114;13.128;2023-04-01T09:48:43;97928.00;;;17.00
12875;BMP180;6505;51.114;13.128;2023-04-01T09:51:31;97926.00;;;17.10
12875;BMP180;6505;51.114;13.128;2023-04-01T09:54:25;97925.00;;;17.10
12875;BMP180;6505;51.114;13.128;2023-04-01T09:57:44;97930.00;;;17.10
12875;BMP180;6505;51.114;13.128;2023-04-01T10:04:35;97931.00;;;17.10
12875;BMP180;6505;51.114;13.128;2023-04-01T10:07:40;97934.00;;;17.10
12875;BMP180;6505;51.114;13.128;2023-04-01T10:11:10;97937.00;;;17.10
12875;BMP180;6505;51.114;13.128;2023-04-01T10:14:16;97933.00;;;17.10
12875;BMP180;6505;51.114;13.128;2023-04-01T10:17:32;97929.00;;;17.10
12875;BMP180;6505;51.114;13.128;2023-04-01T10:20:45;97940.00;;;17.20
12875;BMP180;6505;51.114;13.128;2023-04-01T10:23:42;97937.00;;;17.20
12875;BMP180;6505;51.114;13.128;2023-04-01T10:27:05;97943.00;;;17.20
12875;BMP180;6505;51.114;13.128;2023-04-01T10:30:48;97936.00;;;17.20
12875;BMP180;6505;51.114;13.128;2023-04-01T10:33:58;97928.00;;;17.20
12875;BMP180;6505;51.114;13.128;2023-04-01T10:36:52;97933.00;;;17.30
12875;BMP180;6505;51.114;13.128;2023-04-01T10:40:18;97932.00;;;17.30
12875;BMP180;6505;51.114;13.128;2023-04-01T10:44:04;97937.00;;;17.30
12875;BMP180;6505;51.114;13.128;2023-04-01T10:47:36;97949.00;;;17.30
12875;BMP180;6505;51.114;13.128;2023-04-01T10:50:38;97947.00;;;17.30
12875;BMP180;6505;51.114;13.128;2023-04-01T10:54:00;97932.00;;;17.30
12875;BMP180;6505;51.114;13.128;2023-04-01T10:56:55;97938.00;;;17.40
12875;BMP180;6505;51.114;13.128;2023-04-01T11:07:41;97942.00;;;17.40
12875;BMP180;6505;51.114;13.128;2023-04-01T11:11:05;97947.00;;;17.40
12875;BMP180;6505;51.114;13.128;2023-04-01T11:14:30;97939.00;;;17.40
12875;BMP180;6505;51.114;13.128;2023-04-01T11:17:41;97944.00;;;17.50
12875;BMP180;6505;51.114;13.128;2023-04-01T11:20:40;97943.00;;;17.50
12875;BMP180;6505;51.114;13.128;2023-04-01T11:26:52;97943.00;;;17.50
12875;BMP180;6505;51.114;13.128;2023-04-01T11:30:11;97936.00;;;17.50
12875;BMP180;6505;51.114;13.128;2023-04-01T11:32:54;97942.00;;;17.50
12875;BMP180;6505;51.114;13.128;2023-04-01T11:35:44;97939.00;;;17.60
12875;BMP180;6505;51.114;13.128;2023-04-01T11:38:29;97943.00;;;17.60
12875;BMP180;6505;51.114;13.128;2023-04-01T11:41:27;97943.00;;;17.60
12875;BMP180;6505;51.114;13.128;2023-04-01T11:44:19;97941.00;;;17.60
12875;BMP180;6505;51.114;13.128;2023-04-01T11:47:48;97943.00;;;17.60
12875;BMP180;6505;51.114;13.128;2023-04-01T11:50:30;97935.00;;;17.70
12875;BMP180;6505;51.114;13.128;2023-04-01T11:53:23;97945.00;;;17.70
12875;BMP180;6505;51.114;13.128;2023-04-01T11:56:09;97943.00;;;17.70
12875;BMP180;6505;51.114;13.128;2023-04-01T11:58:59;97949.00;;;17.70
12875;BMP180;6505;51.114;13.128;2023-04-01T12:01:44;97951.00;;;17.70
12875;BMP180;6505;51.114;13.128;2023-04-01T12:04:41;97953.00;;;17.70
12875;BMP180;6505;51.114;13.128;2023-04-01T12:07:25;97940.00;;;17.80
12875;BMP180;6505;51.114;13.128;2023-04-01T12:10:06;97960.00;;;17.80
12875;BMP180;6505;51.114;13.128;2023-04-01T12:12:48;97959.00;;;17.80
12875;BMP180;6505;51.114;13.128;2023-04-01T12:15:36;97964.00;;;17.80
12875;BMP180;6505;51.114;13.128;2023-04-01T12:18:20;97967.00;;;17.80
12875;BMP180;6505;51.114;13.128;2023-04-01T12:20:59;97965.00;;;17.80
12875;BMP180;6505;51.114;13.128;2023-04-01T12:23:54;97963.00;;;17.80
12875;BMP180;6505;51.114;13.128;2023-04-01T12:26:54;97964.00;;;17.80
12875;BMP180;6505;51.114;13.128;2023-04-01T12:30:22;97961.00;;;17.80
12875;BMP180;6505;51.114;13.128;2023-04-01T12:33:19;97959.00;;;17.80
12875;BMP180;6505;51.114;13.128;2023-04-01T12:36:04;97958.00;;;17.80
12875;BMP180;6505;51.114;13.128;2023-04-01T12:38:50;97955.00;;;17.90
12875;BMP180;6505;51.114;13.128;2023-04-01T12:41:32;97956.00;;;17.90
12875;BMP180;6505;51.114;13.128;2023-04-01T12:44:55;97957.00;;;17.80
12875;BMP180;6505;51.114;13.128;2023-04-01T12:48:06;97962.00;;;17.80
12875;BMP180;6505;51.114;13.128;2023-04-01T12:51:24;97943.00;;;17.80
12875;BMP180;6505;51.114;13.128;2023-04-01T12:54:25;97964.00;;;17.80
12875;BMP180;6505;51.114;13.128;2023-04-01T12:57:17;97974.00;;;17.90
12875;BMP180;6505;51.114;13.128;2023-04-01T13:00:17;97972.00;;;17.90
12875;BMP180;6505;51.114;13.128;2023-04-01T13:03:12;97973.00;;;17.90
12875;BMP180;6505;51.114;13.128;2023-04-01T13:06:12;97973.00;;;17.90
12875;BMP180;6505;51.114;13.128;2023-04-01T13:09:00;97969.00;;;17.90
12875;BMP180;6505;51.114;13.128;2023-04-01T13:11:44;97983.00;;;17.90
12875;BMP180;6505;51.114;13.128;2023-04-01T13:14:35;97981.00;;;17.90
12875;BMP180;6505;51.114;13.128;2023-04-01T13:17:13;97985.00;;;17.90
12875;BMP180;6505;51.114;13.128;2023-04-01T13:19:49;97990.00;;;18.00
12875;BMP180;6505;51.114;13.128;2023-04-01T13:22:55;97987.00;;;17.90
12875;BMP180;6505;51.114;13.128;2023-04-01T13:25:36;97994.00;;;17.90
12875;BMP180;6505;51.114;13.128;2023-04-01T13:28:15;98000.00;;;18.00
12875;BMP180;6505;51.114;13.128;2023-04-01T13:30:57;98006.00;;;18.00
12875;BMP180;6505;51.114;13.128;2023-04-01T13:33:35;97998.00;;;18.00
12875;BMP180;6505;51.114;13.128;2023-04-01T13:36:21;98000.00;;;18.00
12875;BMP180;6505;51.114;13.128;2023-04-01T13:39:13;97998.00;;;18.00
12875;BMP180;6505;51.114;13.128;2023-04-01T13:42:06;98004.00;;;18.00
12875;BMP180;6505;51.114;13.128;2023-04-01T13:44:44;97999.00;;;18.00
12875;BMP180;6505;51.114;13.128;2023-04-01T13:47:38;98009.00;;;18.10
12875;BMP180;6505;51.114;13.128;2023-04-01T13:50:26;98016.00;;;18.10
12875;BMP180;6505;51.114;13.128;2023-04-01T13:53:38;98012.00;;;18.10
12875;BMP180;6505;51.114;13.128;2023-04-01T13:56:24;98008.00;;;18.10
12875;BMP180;6505;51.114;13.128;2023-04-01T13:59:31;98021.00;;;18.10
12875;BMP180;6505;51.114;13.128;2023-04-01T14:02:42;98014.00;;;18.10
12875;BMP180;6505;51.114;13.128;2023-04-01T14:05:38;98018.00;;;18.10
12875;BMP180;6505;51.114;13.128;2023-04-01T14:08:23;98018.00;;;18.10
12875;BMP180;6505;51.114;13.128;2023-04-01T14:11:10;98017.00;;;18.10
12875;BMP180;6505;51.114;13.128;2023-04-01T14:13:52;98027.00;;;18.10
12875;BMP180;6505;51.114;13.128;2023-04-01T14:20:30;98025.00;;;18.10
12875;BMP180;6505;51.114;13.128;2023-04-01T14:23:31;98040.00;;;18.10
12875;BMP180;6505;51.114;13.128;2023-04-01T14:26:19;98035.00;;;18.10
12875;BMP180;6505;51.114;13.128;2023-04-01T14:28:59;98033.00;;;18.10
12875;BMP180;6505;51.114;13.128;2023-04-01T14:31:43;98034.00;;;18.10
12875;BMP180;6505;51.114;13.128;2023-04-01T14:34:29;98025.00;;;18.10
12875;BMP180;6505;51.114;13.128;2023-04-01T14:37:38;98039.00;;;18.10
12875;BMP180;6505;51.114;13.128;2023-04-01T14:40:27;98033.00;;;18.10
12875;BMP180;6505;51.114;13.128;2023-04-01T14:46:37;98034.00;;;18.10
12875;BMP180;6505;51.114;13.128;2023-04-01T14:49:20;98036.00;;;18.10
12875;BMP180;6505;51.114;13.128;2023-04-01T14:51:51;98031.00;;;18.20
12875;BMP180;6505;51.114;13.128;2023-04-01T14:54:31;98031.00;;;18.20
12875;BMP180;6505;51.114;13.128;2023-04-01T14:57:11;98035.00;;;18.20
12875;BMP180;6505;51.114;13.128;2023-04-01T14:59:46;98042.00;;;18.20
12875;BMP180;6505;51.114;13.128;2023-04-01T15:02:45;98034.00;;;18.20
12875;BMP180;6505;51.114;13.128;2023-04-01T15:05:32;98045.00;;;18.10
12875;BMP180;6505;51.114;13.128;2023-04-01T15:08:12;98046.00;;;18.20
12875;BMP180;6505;51.114;13.128;2023-04-01T15:11:21;98038.00;;;18.10
12875;BMP180;6505;51.114;13.128;2023-04-01T15:14:18;98043.00;;;18.20
12875;BMP180;6505;51.114;13.128;2023-04-01T15:17:03;98050.00;;;18.20
12875;BMP180;6505;51.114;13.128;2023-04-01T15:19:55;98042.00;;;18.20
12875;BMP180;6505;51.114;13.128;2023-04-01T15:22:48;98044.00;;;18.20
12875;BMP180;6505;51.114;13.128;2023-04-01T15:25:41;98045.00;;;18.20
12875;BMP180;6505;51.114;13.128;2023-04-01T15:28:25;98055.00;;;18.20
12875;BMP180;6505;51.114;13.128;2023-04-01T15:31:09;98058.00;;;18.20
12875;BMP180;6505;51.114;13.128;2023-04-01T15:34:05;98055.00;;;18.20
12875;BMP180;6505;51.114;13.128;2023-04-01T15:36:43;98055.00;;;18.20
12875;BMP180;6505;51.114;13.128;2023-04-01T15:39:17;98052.00;;;18.20
12875;BMP180;6505;51.114;13.128;2023-04-01T15:42:08;98059.00;;;18.20
12875;BMP180;6505;51.114;13.128;2023-04-01T15:44:56;98055.00;;;18.20
12875;BMP180;6505;51.114;13.128;2023-04-01T15:47:36;98066.00;;;18.20
12875;BMP180;6505;51.114;13.128;2023-04-01T15:50:45;98063.00;;;18.20
12875;BMP180;6505;51.114;13.128;2023-04-01T15:53:31;98075.00;;;18.20
12875;BMP180;6505;51.114;13.128;2023-04-01T15:56:19;98073.00;;;18.20
12875;BMP180;6505;51.114;13.128;2023-04-01T15:59:02;98076.00;;;18.20
12875;BMP180;6505;51.114;13.128;2023-04-01T16:01:46;98073.00;;;18.20
12875;BMP180;6505;51.114;13.128;2023-04-01T16:04:50;98070.00;;;18.20
12875;BMP180;6505;51.114;13.128;2023-04-01T16:07:43;98077.00;;;18.20
12875;BMP180;6505;51.114;13.128;2023-04-01T16:10:30;98080.00;;;18.20
12875;BMP180;6505;51.114;13.128;2023-04-01T16:13:22;98091.00;;;18.20
12875;BMP180;6505;51.114;13.128;2023-04-01T16:16:05;98085.00;;;18.20
12875;BMP180;6505;51.114;13.128;2023-04-01T16:18:56;98091.00;;;18.20
12875;BMP180;6505;51.114;13.128;2023-04-01T16:21:37;98092.00;;;18.20
12875;BMP180;6505;51.114;13.128;2023-04-01T16:24:17;98084.00;;;18.20